createdAt,value
2023-01-29T00:00:16.665Z,9.457187
2023-01-29T00:01:16.359Z,9.457223
2023-01-29T00:02:16.384Z,9.457232
2023-01-29T00:03:16.368Z,9.457231
2023-01-29T00:04:16.348Z,9.457314
2023-01-29T00:05:27.439Z,9.457372
2023-01-29T00:06:18.323Z,9.457153
2023-01-29T00:07:16.295Z,9.457243
2023-01-29T00:08:16.290Z,9.457347
2023-01-29T00:09:16.297Z,9.457270
2023-01-29T00:10:16.639Z,9.457256
2023-01-29T00:11:16.260Z,9.457176
2023-01-29T00:12:16.256Z,9.457241
2023-01-29T00:13:16.250Z,9.457279
2023-01-29T00:14:16.256Z,9.457155
2023-01-29T00:15:16.214Z,9.457275
2023-01-29T00:16:16.213Z,9.457231
2023-01-29T00:17:16.278Z,9.457172
2023-01-29T00:18:16.196Z,9.457172
2023-01-29T00:19:16.211Z,9.457157
2023-01-29T00:20:16.402Z,9.457251
2023-01-29T00:21:16.164Z,9.457172
2023-01-29T00:22:16.158Z,9.457185
2023-01-29T00:23:16.134Z,9.457234
2023-01-29T00:24:16.309Z,9.457185
2023-01-29T00:25:16.135Z,9.457280
2023-01-29T00:26:16.119Z,9.457148
2023-01-29T00:27:16.101Z,9.457247
2023-01-29T00:28:16.099Z,9.457175
2023-01-29T00:29:16.106Z,9.457220
2023-01-29T00:30:16.349Z,9.457162
2023-01-29T00:31:16.185Z,9.457034
2023-01-29T00:32:16.218Z,9.457590
2023-01-29T00:33:16.039Z,9.457625
2023-01-29T00:34:16.061Z,9.457508
2023-01-29T00:35:16.021Z,9.457246
2023-01-29T00:36:16.009Z,9.457365
2023-01-29T00:37:16.002Z,9.457234
2023-01-29T00:38:16.001Z,9.457051
2023-01-29T00:39:16.006Z,9.457047
2023-01-29T00:40:16.496Z,9.457031
2023-01-29T00:41:15.962Z,9.457104
2023-01-29T00:42:15.945Z,9.456988
2023-01-29T00:43:15.940Z,9.457384
2023-01-29T00:44:15.950Z,9.457168
2023-01-29T00:45:15.927Z,9.457143
2023-01-29T00:46:15.951Z,9.457068
2023-01-29T00:47:15.894Z,9.457110
2023-01-29T00:48:16.897Z,9.457027
2023-01-29T00:49:15.910Z,9.457153
2023-01-29T00:50:16.078Z,9.457291
2023-01-29T00:51:15.869Z,9.457326
2023-01-29T00:52:15.863Z,9.457430
2023-01-29T00:53:15.852Z,9.457122
2023-01-29T00:54:15.863Z,9.457208
2023-01-29T00:55:15.835Z,9.457274
2023-01-29T00:56:15.834Z,9.457294
2023-01-29T00:57:15.811Z,9.457134
2023-01-29T00:58:15.795Z,9.457186
2023-01-29T00:59:15.809Z,9.457168
2023-01-29T01:00:16.150Z,9.457159
2023-01-29T01:01:15.807Z,9.457262
2023-01-29T01:02:15.798Z,9.457220
2023-01-29T01:03:15.753Z,9.457271
2023-01-29T01:04:15.766Z,9.457272
2023-01-29T01:05:15.747Z,9.457001
2023-01-29T01:06:15.740Z,9.457160
2023-01-29T01:07:15.712Z,9.457355
2023-01-29T01:08:15.703Z,9.457279
2023-01-29T01:09:15.716Z,9.457383
2023-01-29T01:10:15.980Z,9.457445
2023-01-29T01:11:15.674Z,9.457154
2023-01-29T01:12:15.660Z,9.457383
2023-01-29T01:13:15.650Z,9.457471
2023-01-29T01:14:15.653Z,9.457402
2023-01-29T01:15:15.632Z,9.457360
2023-01-29T01:16:15.679Z,9.457435
2023-01-29T01:17:15.611Z,9.457122
2023-01-29T01:18:15.599Z,9.457466
2023-01-29T01:19:16.603Z,9.457592
2023-01-29T01:20:15.917Z,9.457520
2023-01-29T01:21:15.567Z,9.457289
2023-01-29T01:22:15.560Z,9.457350
2023-01-29T01:23:15.550Z,9.457250
2023-01-29T01:24:15.617Z,9.457488
2023-01-29T01:25:15.545Z,9.457251
2023-01-29T01:26:15.529Z,9.457187
2023-01-29T01:27:15.520Z,9.457136
2023-01-29T01:28:15.521Z,9.457402
2023-01-29T01:29:15.518Z,9.457319
2023-01-29T01:30:15.912Z,9.457307
2023-01-29T01:31:15.606Z,9.457217
2023-01-29T01:32:15.463Z,9.457401
2023-01-29T01:33:15.453Z,9.457460
2023-01-29T01:34:15.456Z,9.457193
2023-01-29T01:35:15.445Z,9.456864
2023-01-29T01:36:15.427Z,9.456918
2023-01-29T01:37:15.417Z,9.457065
2023-01-29T01:38:15.403Z,9.457472
2023-01-29T01:39:15.433Z,9.457136
2023-01-29T01:40:15.658Z,9.457089
2023-01-29T01:41:15.376Z,9.457037
2023-01-29T01:42:15.353Z,9.457026
2023-01-29T01:43:15.358Z,9.457035
2023-01-29T01:44:15.360Z,9.456985
2023-01-29T01:45:15.342Z,9.457006
2023-01-29T01:46:15.338Z,9.456952
2023-01-29T01:47:15.322Z,9.456447
2023-01-29T01:48:15.307Z,9.456442
2023-01-29T01:49:15.318Z,9.456748
2023-01-29T01:50:15.631Z,9.456442
2023-01-29T01:51:15.284Z,9.457241
2023-01-29T01:52:15.273Z,9.457236
2023-01-29T01:53:15.267Z,9.457379
2023-01-29T01:54:15.266Z,9.457437
2023-01-29T01:55:15.257Z,9.457883
2023-01-29T01:56:15.235Z,9.457129
2023-01-29T01:57:15.218Z,9.456911
2023-01-29T01:58:15.218Z,9.457040
2023-01-29T01:59:15.210Z,9.457449
2023-01-29T02:00:15.501Z,9.457228
2023-01-29T02:01:15.239Z,9.456952
2023-01-29T02:02:15.186Z,9.456975
2023-01-29T02:03:15.156Z,9.456680
2023-01-29T02:04:15.171Z,9.456900
2023-01-29T02:05:15.151Z,9.456823
2023-01-29T02:06:15.131Z,9.457053
2023-01-29T02:07:15.127Z,9.457159
2023-01-29T02:08:15.107Z,9.457076
2023-01-29T02:09:15.117Z,9.457287
2023-01-29T02:10:15.473Z,9.457326
2023-01-29T02:11:15.078Z,9.457116
2023-01-29T02:12:15.073Z,9.457094
2023-01-29T02:13:15.055Z,9.457001
2023-01-29T02:14:15.086Z,9.457078
2023-01-29T02:15:15.041Z,9.457130
2023-01-29T02:16:15.028Z,9.457105
2023-01-29T02:17:15.055Z,9.457014
2023-01-29T02:18:15.004Z,9.457121
2023-01-29T02:19:15.006Z,9.457213
2023-01-29T02:20:15.427Z,9.457218
2023-01-29T02:21:14.982Z,9.457010
2023-01-29T02:22:14.968Z,9.456844
2023-01-29T02:23:14.944Z,9.457003
2023-01-29T02:24:15.087Z,9.457233
2023-01-29T02:25:14.957Z,9.457211
2023-01-29T02:26:14.944Z,9.457047
2023-01-29T02:27:14.909Z,9.457171
2023-01-29T02:28:14.902Z,9.457367
2023-01-29T02:29:14.916Z,9.457296
2023-01-29T02:30:15.336Z,9.457274
2023-01-29T02:31:14.920Z,9.457261
2023-01-29T02:32:14.873Z,9.457040
2023-01-29T02:33:14.861Z,9.457180
2023-01-29T02:34:14.879Z,9.457364
2023-01-29T02:35:14.834Z,9.457109
2023-01-29T02:36:14.836Z,9.457366
2023-01-29T02:37:14.826Z,9.457338
2023-01-29T02:38:14.805Z,9.457249
2023-01-29T02:39:14.807Z,9.457269
2023-01-29T02:40:15.123Z,9.457323
2023-01-29T02:41:14.776Z,9.457279
2023-01-29T02:42:14.765Z,9.457079
2023-01-29T02:43:14.752Z,9.457253
2023-01-29T02:44:14.772Z,9.457250
2023-01-29T02:45:14.733Z,9.457420
2023-01-29T02:46:14.779Z,9.457360
2023-01-29T02:47:14.715Z,9.457306
2023-01-29T02:48:14.733Z,9.457089
2023-01-29T02:49:14.715Z,9.457169
2023-01-29T02:50:15.068Z,9.457339
2023-01-29T02:51:14.733Z,9.457271
2023-01-29T02:52:14.664Z,9.457329
2023-01-29T02:53:14.663Z,9.457190
2023-01-29T02:54:14.664Z,9.457154
2023-01-29T02:55:14.647Z,9.457188
2023-01-29T02:56:14.630Z,9.457167
2023-01-29T02:57:14.678Z,9.457246
2023-01-29T02:58:14.611Z,9.457152
2023-01-29T02:59:14.626Z,9.457265
2023-01-29T03:00:14.832Z,9.457176
2023-01-29T03:01:14.593Z,9.457310
2023-01-29T03:02:14.603Z,9.457266
2023-01-29T03:03:14.546Z,9.457228
2023-01-29T03:04:14.565Z,9.457249
2023-01-29T03:05:14.542Z,9.457278
2023-01-29T03:06:14.525Z,9.457353
2023-01-29T03:07:14.511Z,9.457295
2023-01-29T03:08:14.508Z,9.457247
2023-01-29T03:09:14.503Z,9.457183
2023-01-29T03:10:14.883Z,9.457215
2023-01-29T03:11:14.474Z,9.457146
2023-01-29T03:12:14.474Z,9.457067
2023-01-29T03:13:14.462Z,9.457267
2023-01-29T03:14:14.491Z,9.457271
2023-01-29T03:15:14.453Z,9.457247
2023-01-29T03:16:14.437Z,9.457343
2023-01-29T03:17:14.421Z,9.457400
2023-01-29T03:18:14.419Z,9.457208
2023-01-29T03:19:14.401Z,9.457251
2023-01-29T03:20:15.019Z,9.457529
2023-01-29T03:21:14.378Z,9.457663
2023-01-29T03:22:14.374Z,9.457953
2023-01-29T03:23:14.356Z,9.457983
2023-01-29T03:24:14.430Z,9.457781
2023-01-29T03:25:14.394Z,9.458047
2023-01-29T03:26:14.344Z,9.458086
2023-01-29T03:27:14.384Z,9.457994
2023-01-29T03:28:14.318Z,9.457994
2023-01-29T03:29:14.310Z,9.457994
2023-01-29T03:30:14.748Z,9.457900
2023-01-29T03:31:14.365Z,9.457250
2023-01-29T03:32:14.370Z,9.457394
2023-01-29T03:33:14.270Z,9.457450
2023-01-29T03:34:14.259Z,9.457475
2023-01-29T03:35:14.261Z,9.457428
2023-01-29T03:36:14.237Z,9.457054
2023-01-29T03:37:14.231Z,9.457314
2023-01-29T03:38:14.224Z,9.457369
2023-01-29T03:39:14.216Z,9.456950
2023-01-29T03:40:14.571Z,9.457003
2023-01-29T03:41:14.213Z,9.457037
2023-01-29T03:42:14.180Z,9.457000
2023-01-29T03:43:14.183Z,9.457013
2023-01-29T03:44:14.174Z,9.456551
2023-01-29T03:45:14.178Z,9.456696
2023-01-29T03:46:14.144Z,9.457575
2023-01-29T03:47:14.133Z,9.457142
2023-01-29T03:48:14.129Z,9.457563
2023-01-29T03:49:14.115Z,9.457558
2023-01-29T03:50:14.342Z,9.457533
2023-01-29T03:51:14.095Z,9.457087
2023-01-29T03:52:14.085Z,9.457690
2023-01-29T03:53:14.075Z,9.457498
2023-01-29T03:54:14.059Z,9.457500
2023-01-29T03:55:14.069Z,9.457182
2023-01-29T03:56:14.049Z,9.457332
2023-01-29T03:57:14.037Z,9.457504
2023-01-29T03:58:14.013Z,9.457523
2023-01-29T03:59:14.021Z,9.457272
2023-01-29T04:00:14.214Z,9.456969
2023-01-29T04:01:13.997Z,9.457170
2023-01-29T04:02:13.986Z,9.457324
2023-01-29T04:03:13.980Z,9.457563
2023-01-29T04:04:14.009Z,9.457746
2023-01-29T04:05:13.970Z,9.457677
2023-01-29T04:06:13.940Z,9.457442
2023-01-29T04:07:13.939Z,9.457347
2023-01-29T04:08:13.931Z,9.457225
2023-01-29T04:09:13.916Z,9.457245
2023-01-29T04:10:14.195Z,9.457100
2023-01-29T04:11:13.892Z,9.457236
2023-01-29T04:12:13.889Z,9.457313
2023-01-29T04:13:13.877Z,9.457226
2023-01-29T04:14:13.862Z,9.457058
2023-01-29T04:15:13.872Z,9.457210
2023-01-29T04:16:13.881Z,9.457376
2023-01-29T04:17:13.844Z,9.457393
2023-01-29T04:18:13.834Z,9.457449
2023-01-29T04:19:13.814Z,9.457342
2023-01-29T04:20:14.032Z,9.457261
2023-01-29T04:21:13.802Z,9.457561
2023-01-29T04:22:13.788Z,9.457573
2023-01-29T04:23:13.780Z,9.457387
2023-01-29T04:24:13.813Z,9.457435
2023-01-29T04:25:13.784Z,9.457361
2023-01-29T04:26:13.742Z,9.457396
2023-01-29T04:27:13.761Z,9.457514
2023-01-29T04:28:13.736Z,9.457413
2023-01-29T04:29:13.721Z,9.457375
2023-01-29T04:30:13.781Z,9.457276
2023-01-29T04:31:13.811Z,9.457343
2023-01-29T04:32:13.716Z,9.457314
2023-01-29T04:33:13.678Z,9.457499
2023-01-29T04:34:13.669Z,9.457350
2023-01-29T04:35:13.690Z,9.457541
2023-01-29T04:36:13.659Z,9.457516
2023-01-29T04:37:13.653Z,9.457705
2023-01-29T04:38:13.643Z,9.457682
2023-01-29T04:39:13.624Z,9.457645
2023-01-29T04:40:13.700Z,9.457198
2023-01-29T04:41:13.614Z,9.457132
2023-01-29T04:42:13.584Z,9.457209
2023-01-29T04:43:13.617Z,9.457131
2023-01-29T04:44:13.583Z,9.457146
2023-01-29T04:45:13.587Z,9.457187
2023-01-29T04:46:13.553Z,9.457362
2023-01-29T04:47:13.573Z,9.457211
2023-01-29T04:48:13.533Z,9.457439
2023-01-29T04:49:14.537Z,9.457271
2023-01-29T04:50:13.682Z,9.457311
2023-01-29T04:51:13.509Z,9.457347
2023-01-29T04:52:13.501Z,9.457134
2023-01-29T04:53:13.490Z,9.457179
2023-01-29T04:54:13.477Z,9.457270
2023-01-29T04:55:13.491Z,9.457267
2023-01-29T04:56:13.462Z,9.457423
2023-01-29T04:57:13.451Z,9.457360
2023-01-29T04:58:13.440Z,9.457269
2023-01-29T04:59:13.447Z,9.457273
2023-01-29T05:00:13.738Z,9.457273
2023-01-29T05:01:13.426Z,9.457220
2023-01-29T05:02:13.399Z,9.457122
2023-01-29T05:03:13.408Z,9.457238
2023-01-29T05:04:13.398Z,9.457444
2023-01-29T05:05:13.402Z,9.457363
2023-01-29T05:06:13.381Z,9.457117
2023-01-29T05:07:13.363Z,9.457198
2023-01-29T05:08:13.339Z,9.457141
2023-01-29T05:09:13.337Z,9.457216
2023-01-29T05:10:13.351Z,9.457262
2023-01-29T05:11:13.311Z,9.457270
2023-01-29T05:12:13.304Z,9.457252
2023-01-29T05:13:13.296Z,9.457317
2023-01-29T05:14:13.279Z,9.457334
2023-01-29T05:15:13.293Z,9.457136
2023-01-29T05:16:13.388Z,9.456984
2023-01-29T05:17:13.281Z,9.457034
2023-01-29T05:18:13.240Z,9.457070
2023-01-29T05:19:13.998Z,9.457163
2023-01-29T05:20:13.285Z,9.457261
2023-01-29T05:21:14.218Z,9.457233
2023-01-29T05:22:13.209Z,9.457376
2023-01-29T05:23:13.213Z,9.457270
2023-01-29T05:24:13.241Z,9.457342
2023-01-29T05:25:13.192Z,9.457346
2023-01-29T05:26:13.164Z,9.457299
2023-01-29T05:27:13.183Z,9.457153
2023-01-29T05:28:13.153Z,9.457330
2023-01-29T05:29:13.142Z,9.457349
2023-01-29T05:30:13.134Z,9.457320
2023-01-29T05:31:13.221Z,9.457207
2023-01-29T05:32:13.127Z,9.457157
2023-01-29T05:33:13.099Z,9.457175
2023-01-29T05:34:13.082Z,9.457193
2023-01-29T05:35:13.101Z,9.457417
2023-01-29T05:36:13.076Z,9.457368
2023-01-29T05:37:13.066Z,9.457243
2023-01-29T05:38:13.046Z,9.457182
2023-01-29T05:39:13.043Z,9.457245
2023-01-29T05:40:13.050Z,9.457318
2023-01-29T05:41:13.022Z,9.457250
2023-01-29T05:42:13.005Z,9.457343
2023-01-29T05:43:13.004Z,9.457238
2023-01-29T05:44:12.997Z,9.457202
2023-01-29T05:45:13.030Z,9.457241
2023-01-29T05:46:13.021Z,9.457320
2023-01-29T05:47:12.965Z,9.457319
2023-01-29T05:48:12.953Z,9.457239
2023-01-29T05:49:12.949Z,9.457501
2023-01-29T05:50:12.941Z,9.457167
2023-01-29T05:51:12.924Z,9.457230
2023-01-29T05:52:12.915Z,9.457321
2023-01-29T05:53:12.909Z,9.457144
2023-01-29T05:54:12.889Z,9.457300
2023-01-29T05:55:13.912Z,9.457150
2023-01-29T05:56:12.883Z,9.457067
2023-01-29T05:57:12.868Z,9.457276
2023-01-29T05:58:12.916Z,9.457208
2023-01-29T05:59:12.841Z,9.457251
2023-01-29T06:00:12.882Z,9.457321
2023-01-29T06:01:12.838Z,9.457215
2023-01-29T06:02:12.850Z,9.457257
2023-01-29T06:03:12.877Z,9.457243
2023-01-29T06:04:12.801Z,9.457326
2023-01-29T06:05:12.821Z,9.457282
2023-01-29T06:06:12.778Z,9.457215
2023-01-29T06:07:12.768Z,9.457160
2023-01-29T06:08:12.761Z,9.457129
2023-01-29T06:09:12.756Z,9.457114
2023-01-29T06:10:12.763Z,9.457209
2023-01-29T06:11:12.720Z,9.457197
2023-01-29T06:12:12.719Z,9.457338
2023-01-29T06:13:12.713Z,9.457281
2023-01-29T06:14:12.711Z,9.457316
2023-01-29T06:15:12.714Z,9.457365
2023-01-29T06:16:12.731Z,9.457345
2023-01-29T06:17:12.681Z,9.457227
2023-01-29T06:18:12.672Z,9.457275
2023-01-29T06:19:12.657Z,9.457175
2023-01-29T06:20:12.641Z,9.457330
2023-01-29T06:21:12.648Z,9.457332
2023-01-29T06:22:12.631Z,9.457306
2023-01-29T06:23:12.620Z,9.457281
2023-01-29T06:24:12.664Z,9.457230
2023-01-29T06:25:12.630Z,9.457355
2023-01-29T06:26:12.603Z,9.457333
2023-01-29T06:27:12.617Z,9.457215
2023-01-29T06:28:12.574Z,9.457212
2023-01-29T06:29:12.563Z,9.457221
2023-01-29T06:30:12.551Z,9.457219
2023-01-29T06:31:39.137Z,9.457318
2023-01-29T06:32:14.652Z,9.457284
2023-01-29T06:33:12.525Z,9.457160
2023-01-29T06:34:12.522Z,9.457294
2023-01-29T06:35:12.496Z,9.457152
2023-01-29T06:36:12.511Z,9.457211
2023-01-29T06:37:12.486Z,9.457352
2023-01-29T06:38:12.469Z,9.457018
2023-01-29T06:39:12.451Z,9.457026
2023-01-29T06:40:12.457Z,9.457170
2023-01-29T06:41:12.463Z,9.457425
2023-01-29T06:42:12.424Z,9.457219
2023-01-29T06:43:12.421Z,9.457165
2023-01-29T06:44:12.408Z,9.457157
2023-01-29T06:45:12.405Z,9.457096
2023-01-29T06:46:12.407Z,9.457001
2023-01-29T06:47:12.382Z,9.457123
2023-01-29T06:48:12.372Z,9.457112
2023-01-29T06:49:12.365Z,9.457097
2023-01-29T06:50:12.344Z,9.457234
2023-01-29T06:51:12.364Z,9.457320
2023-01-29T06:52:12.345Z,9.457312
2023-01-29T06:53:12.330Z,9.457367
2023-01-29T06:54:12.318Z,9.457215
2023-01-29T06:55:12.307Z,9.457191
2023-01-29T06:56:12.339Z,9.457184
2023-01-29T06:57:12.281Z,9.457162
2023-01-29T06:58:12.270Z,9.457092
2023-01-29T06:59:12.265Z,9.457113
2023-01-29T07:00:12.256Z,9.457269
2023-01-29T07:01:17.489Z,9.457082
2023-01-29T07:02:14.304Z,9.457080
2023-01-29T07:03:12.228Z,9.457159
2023-01-29T07:04:12.241Z,9.457262
2023-01-29T07:05:12.213Z,9.457184
2023-01-29T07:06:12.234Z,9.457186
2023-01-29T07:07:12.183Z,9.457142
2023-01-29T07:08:12.187Z,9.457223
2023-01-29T07:09:12.168Z,9.457182
2023-01-29T07:10:12.160Z,9.457123
2023-01-29T07:11:12.172Z,9.457187
2023-01-29T07:12:12.137Z,9.457041
2023-01-29T07:13:12.130Z,9.457010
2023-01-29T07:14:12.134Z,9.457181
2023-01-29T07:15:12.112Z,9.457221
2023-01-29T07:16:12.158Z,9.457109
2023-01-29T07:17:12.089Z,9.456934
2023-01-29T07:18:12.128Z,9.457029
2023-01-29T07:19:12.072Z,9.457053
2023-01-29T07:20:12.059Z,9.457265
2023-01-29T07:21:12.073Z,9.457301
2023-01-29T07:22:12.029Z,9.457100
2023-01-29T07:23:12.029Z,9.457046
2023-01-29T07:24:12.092Z,9.457024
2023-01-29T07:25:12.010Z,9.457002
2023-01-29T07:26:12.016Z,9.457106
2023-01-29T07:27:11.992Z,9.457311
2023-01-29T07:28:11.978Z,9.457418
2023-01-29T07:29:11.972Z,9.457265
2023-01-29T07:30:11.947Z,9.457237
2023-01-29T07:31:12.141Z,9.457133
2023-01-29T07:32:11.963Z,9.457172
2023-01-29T07:33:11.928Z,9.457189
2023-01-29T07:34:11.926Z,9.457188
2023-01-29T07:35:11.907Z,9.457127
2023-01-29T07:36:11.935Z,9.457054
2023-01-29T07:37:11.894Z,9.457170
2023-01-29T07:38:11.892Z,9.457243
2023-01-29T07:39:11.866Z,9.457298
2023-01-29T07:40:11.864Z,9.457393
2023-01-29T07:41:11.868Z,9.457208
2023-01-29T07:42:11.842Z,9.457040
2023-01-29T07:43:11.842Z,9.457281
2023-01-29T07:44:11.825Z,9.457405
2023-01-29T07:45:11.818Z,9.457335
2023-01-29T07:46:11.864Z,9.457169
2023-01-29T07:47:11.799Z,9.457084
2023-01-29T07:48:11.793Z,9.457125
2023-01-29T07:49:11.802Z,9.457069
2023-01-29T07:50:11.756Z,9.457133
2023-01-29T07:51:11.789Z,9.457339
2023-01-29T07:52:11.763Z,9.457350
2023-01-29T07:53:11.732Z,9.457277
2023-01-29T07:54:11.732Z,9.457254
2023-01-29T07:55:11.715Z,9.457297
2023-01-29T07:56:11.728Z,9.457300
2023-01-29T07:57:11.777Z,9.457253
2023-01-29T07:58:11.678Z,9.457224
2023-01-29T07:59:11.677Z,9.457247
2023-01-29T08:00:11.684Z,9.457243
2023-01-29T08:01:11.741Z,9.457205
2023-01-29T08:02:11.688Z,9.457245
2023-01-29T08:03:11.630Z,9.457123
2023-01-29T08:04:11.684Z,9.457073
2023-01-29T08:05:11.609Z,9.457252
2023-01-29T08:06:11.617Z,9.457148
2023-01-29T08:07:11.595Z,9.456939
2023-01-29T08:08:11.585Z,9.456924
2023-01-29T08:09:11.584Z,9.457143
2023-01-29T08:10:11.579Z,9.457223
2023-01-29T08:11:11.570Z,9.457232
2023-01-29T08:12:11.545Z,9.457108
2023-01-29T08:13:11.536Z,9.457067
2023-01-29T08:14:11.519Z,9.457228
2023-01-29T08:15:11.511Z,9.457221
2023-01-29T08:16:11.567Z,9.457155
2023-01-29T08:17:11.499Z,9.457151
2023-01-29T08:18:11.482Z,9.457145
2023-01-29T08:19:11.471Z,9.457154
2023-01-29T08:20:11.463Z,9.457164
2023-01-29T08:21:13.061Z,9.457135
2023-01-29T08:22:12.439Z,9.457299
2023-01-29T08:23:11.434Z,9.456974
2023-01-29T08:24:11.437Z,9.456968
2023-01-29T08:25:11.428Z,9.457014
2023-01-29T08:26:11.467Z,9.457186
2023-01-29T08:27:11.456Z,9.457262
2023-01-29T08:28:11.387Z,9.457085
2023-01-29T08:29:11.369Z,9.457170
2023-01-29T08:30:11.354Z,9.457215
2023-01-29T08:31:11.397Z,9.457186
2023-01-29T08:32:11.342Z,9.457219
2023-01-29T08:33:11.338Z,9.457299
2023-01-29T08:34:11.327Z,9.457177
2023-01-29T08:35:11.338Z,9.457118
2023-01-29T08:36:11.331Z,9.457248
2023-01-29T08:37:11.313Z,9.457333
2023-01-29T08:38:11.281Z,9.457234
2023-01-29T08:39:11.287Z,9.457145
2023-01-29T08:40:11.267Z,9.457091
2023-01-29T08:41:11.264Z,9.457191
2023-01-29T08:42:11.230Z,9.457129
2023-01-29T08:43:11.230Z,9.457068
2023-01-29T08:44:11.224Z,9.456944
2023-01-29T08:45:11.213Z,9.457062
2023-01-29T08:46:11.266Z,9.457018
2023-01-29T08:47:11.182Z,9.457013
2023-01-29T08:48:11.181Z,9.457168
2023-01-29T08:49:11.178Z,9.457224
2023-01-29T08:50:11.163Z,9.457162
2023-01-29T08:51:11.171Z,9.457126
2023-01-29T08:52:11.136Z,9.457083
2023-01-29T08:53:11.135Z,9.457139
2023-01-29T08:54:11.124Z,9.457191
2023-01-29T08:55:11.120Z,9.457316
2023-01-29T08:56:11.129Z,9.456944
2023-01-29T08:57:11.097Z,9.457044
2023-01-29T08:58:11.078Z,9.457170
2023-01-29T08:59:11.078Z,9.457418
2023-01-29T09:00:11.074Z,9.456922
2023-01-29T09:01:11.129Z,9.456960
2023-01-29T09:02:11.091Z,9.456892
2023-01-29T09:03:11.035Z,9.456934
2023-01-29T09:04:11.036Z,9.457043
2023-01-29T09:05:11.034Z,9.457108
2023-01-29T09:06:11.039Z,9.457457
2023-01-29T09:07:11.029Z,9.457368
2023-01-29T09:08:10.999Z,9.457069
2023-01-29T09:09:10.983Z,9.456930
2023-01-29T09:10:10.972Z,9.456720
2023-01-29T09:11:10.986Z,9.456747
2023-01-29T09:12:10.954Z,9.456792
2023-01-29T09:13:10.946Z,9.456775
2023-01-29T09:14:10.931Z,9.457040
2023-01-29T09:15:10.921Z,9.457148
2023-01-29T09:16:10.931Z,9.457309
2023-01-29T09:17:10.923Z,9.457400
2023-01-29T09:18:10.901Z,9.457422
2023-01-29T09:19:10.887Z,9.457269
2023-01-29T09:20:10.884Z,9.457142
2023-01-29T09:21:10.873Z,9.457059
2023-01-29T09:22:11.891Z,9.457071
2023-01-29T09:23:10.865Z,9.457232
2023-01-29T09:24:10.881Z,9.457232
2023-01-29T09:25:10.833Z,9.457389
2023-01-29T09:26:10.853Z,9.457438
2023-01-29T09:27:10.841Z,9.457190
2023-01-29T09:28:10.810Z,9.457084
2023-01-29T09:29:10.793Z,9.457104
2023-01-29T09:30:10.782Z,9.457180
2023-01-29T09:31:10.869Z,9.457081
2023-01-29T09:32:10.796Z,9.457146
2023-01-29T09:33:10.770Z,9.457119
2023-01-29T09:34:10.748Z,9.457227
2023-01-29T09:35:10.742Z,9.457201
2023-01-29T09:36:10.737Z,9.457121
2023-01-29T09:37:10.745Z,9.457008
2023-01-29T09:38:10.709Z,9.456938
2023-01-29T09:39:10.701Z,9.457026
2023-01-29T09:40:10.692Z,9.457079
2023-01-29T09:41:10.686Z,9.457200
2023-01-29T09:42:10.702Z,9.457236
2023-01-29T09:43:10.666Z,9.457227
2023-01-29T09:44:10.662Z,9.457270
2023-01-29T09:45:10.660Z,9.457210
2023-01-29T09:46:10.692Z,9.457183
2023-01-29T09:47:10.647Z,9.457296
2023-01-29T09:48:10.624Z,9.457176
2023-01-29T09:49:10.610Z,9.457210
2023-01-29T09:50:10.605Z,9.457359
2023-01-29T09:51:10.593Z,9.457176
2023-01-29T09:52:10.608Z,9.457241
2023-01-29T09:53:10.567Z,9.457316
2023-01-29T09:54:10.577Z,9.457026
2023-01-29T09:55:10.570Z,9.457120
2023-01-29T09:56:10.548Z,9.457139
2023-01-29T09:57:10.550Z,9.457248
2023-01-29T09:58:10.540Z,9.457263
2023-01-29T09:59:10.524Z,9.457230
2023-01-29T10:00:10.515Z,9.457299
2023-01-29T10:01:10.556Z,9.457302
2023-01-29T10:02:10.596Z,9.457265
2023-01-29T10:03:10.501Z,9.457361
2023-01-29T10:04:10.481Z,9.457258
2023-01-29T10:05:10.461Z,9.457118
2023-01-29T10:06:10.461Z,9.457099
2023-01-29T10:07:10.471Z,9.457197
2023-01-29T10:08:10.453Z,9.457437
2023-01-29T10:09:10.435Z,9.457435
2023-01-29T10:10:10.434Z,9.457351
2023-01-29T10:11:10.423Z,9.457317
2023-01-29T10:12:10.428Z,9.457200
2023-01-29T10:13:10.393Z,9.456979
2023-01-29T10:14:10.397Z,9.457039
2023-01-29T10:15:10.388Z,9.457189
2023-01-29T10:16:10.371Z,9.457146
2023-01-29T10:17:10.450Z,9.457136
2023-01-29T10:18:10.352Z,9.456903
2023-01-29T10:19:10.337Z,9.457211
2023-01-29T10:20:10.342Z,9.457071
2023-01-29T10:21:10.321Z,9.457214
2023-01-29T10:22:10.340Z,9.456946
2023-01-29T10:23:10.318Z,9.456806
2023-01-29T10:24:10.313Z,9.456841
2023-01-29T10:25:10.295Z,9.457034
2023-01-29T10:26:10.318Z,9.457272
2023-01-29T10:27:10.290Z,9.457047
2023-01-29T10:28:10.272Z,9.457196
2023-01-29T10:29:10.445Z,9.457322
2023-01-29T10:30:10.241Z,9.457566
2023-01-29T10:31:10.313Z,9.457490
2023-01-29T10:32:10.398Z,9.457444
2023-01-29T10:33:10.224Z,9.457275
2023-01-29T10:34:10.207Z,9.457313
2023-01-29T10:35:10.197Z,9.457247
2023-01-29T10:36:10.195Z,9.457364
2023-01-29T10:37:10.204Z,9.457065
2023-01-29T10:38:10.166Z,9.457107
2023-01-29T10:39:10.176Z,9.457016
2023-01-29T10:40:10.153Z,9.457115
2023-01-29T10:41:10.144Z,9.457294
2023-01-29T10:42:10.162Z,9.457241
2023-01-29T10:43:10.129Z,9.457411
2023-01-29T10:44:10.113Z,9.457331
2023-01-29T10:45:11.107Z,9.457432
2023-01-29T10:46:10.112Z,9.457317
2023-01-29T10:47:10.147Z,9.457298
2023-01-29T10:48:10.097Z,9.457184
2023-01-29T10:49:10.093Z,9.456820
2023-01-29T10:50:10.068Z,9.456930
2023-01-29T10:51:10.058Z,9.457028
2023-01-29T10:52:10.065Z,9.457278
2023-01-29T10:53:10.042Z,9.457266
2023-01-29T10:54:10.053Z,9.457400
2023-01-29T10:55:10.026Z,9.457534
2023-01-29T10:56:21.863Z,9.457531
2023-01-29T10:57:12.039Z,9.457541
2023-01-29T10:58:09.997Z,9.457383
2023-01-29T10:59:10.013Z,9.457376
2023-01-29T11:00:09.995Z,9.457303
2023-01-29T11:01:09.981Z,9.457389
2023-01-29T11:02:09.987Z,9.457340
2023-01-29T11:03:12.604Z,9.457299
2023-01-29T11:04:11.968Z,9.457400
2023-01-29T11:05:10.293Z,9.457125
2023-01-29T11:06:09.935Z,9.457290
2023-01-29T11:07:09.948Z,9.457197
2023-01-29T11:08:09.921Z,9.457131
2023-01-29T11:09:09.910Z,9.457331
2023-01-29T11:10:09.900Z,9.457088
2023-01-29T11:11:09.918Z,9.456964
2023-01-29T11:12:09.901Z,9.456983
2023-01-29T11:13:09.880Z,9.457110
2023-01-29T11:14:09.864Z,9.457110
2023-01-29T11:15:09.849Z,9.457122
2023-01-29T11:16:09.849Z,9.457217
2023-01-29T11:17:09.939Z,9.457252
2023-01-29T11:18:09.829Z,9.457232
2023-01-29T11:19:09.821Z,9.457168
2023-01-29T11:20:09.816Z,9.457199
2023-01-29T11:21:09.805Z,9.457099
2023-01-29T11:22:09.811Z,9.457281
2023-01-29T11:23:09.792Z,9.457278
2023-01-29T11:24:09.772Z,9.457187
2023-01-29T11:25:09.773Z,9.457184
2023-01-29T11:26:09.772Z,9.457373
2023-01-29T11:27:09.763Z,9.457545
2023-01-29T11:28:09.741Z,9.457213
2023-01-29T11:29:09.735Z,9.457232
2023-01-29T11:30:09.712Z,9.457289
2023-01-29T11:31:09.772Z,9.457274
2023-01-29T11:32:09.738Z,9.457216
2023-01-29T11:33:09.697Z,9.457161
2023-01-29T11:34:09.685Z,9.457275
2023-01-29T11:35:09.676Z,9.457259
2023-01-29T11:36:09.664Z,9.457365
2023-01-29T11:37:09.685Z,9.457385
2023-01-29T11:38:09.641Z,9.457296
2023-01-29T11:39:09.637Z,9.457417
2023-01-29T11:40:09.670Z,9.457576
2023-01-29T11:41:09.617Z,9.457497
2023-01-29T11:42:09.620Z,9.457539
2023-01-29T11:43:09.640Z,9.457411
2023-01-29T11:44:09.594Z,9.457609